Time;durP1;ratioP1;P1;durP2;ratioP2;P2;SDS_P1;SDS_P2;PMS_P1;PMS_P2;Temp;Humidity;BMP_temperature;BMP_pressure;BME280_temperature;BME280_humidity;BME280_pressure;Samples;Min_cycle;Max_cycle;Signal;HPM_P1;HPM_P2
2022/07/14 00:00:57;;;;;;;4.40;1.50;;;23.60;56.40;;;;;;5012378;28;20168;-65
2022/07/14 00:03:23;;;;;;;3.72;1.70;;;23.50;56.30;;;;;;5012808;28;20176;-65
2022/07/14 00:05:48;;;;;;;2.72;1.45;;;23.60;56.30;;;;;;5012624;28;20216;-66
2022/07/14 00:08:14;;;;;;;2.55;1.63;;;23.60;56.40;;;;;;5012978;28;20251;-65
2022/07/14 00:10:39;;;;;;;4.45;1.88;;;23.50;56.40;;;;;;5013043;28;20168;-66
2022/07/14 00:13:05;;;;;;;2.97;1.70;;;23.60;56.40;;;;;;5012640;28;20181;-65
2022/07/14 00:15:31;;;;;;;4.20;2.00;;;23.60;56.40;;;;;;5012894;28;20180;-66
2022/07/14 00:17:58;;;;;;;5.65;1.80;;;23.60;56.30;;;;;;5012676;28;20176;-66
2022/07/14 00:20:24;;;;;;;10.25;2.20;;;23.50;56.30;;;;;;5012333;28;20184;-66
2022/07/14 00:22:49;;;;;;;3.67;1.65;;;23.50;56.20;;;;;;5012499;28;20247;-66
2022/07/14 00:25:15;;;;;;;2.95;1.45;;;23.50;56.30;;;;;;5012854;28;20355;-66
2022/07/14 00:27:40;;;;;;;2.70;1.45;;;23.50;56.30;;;;;;5012425;28;20556;-66
2022/07/14 00:30:06;;;;;;;4.68;1.67;;;23.50;56.30;;;;;;5012562;28;20531;-66
2022/07/14 00:32:32;;;;;;;5.40;2.03;;;23.50;56.30;;;;;;5013115;28;20180;-65
2022/07/14 00:34:58;;;;;;;2.60;1.60;;;23.50;56.30;;;;;;5012039;28;20176;-66
2022/07/14 00:37:23;;;;;;;3.75;1.60;;;23.50;56.30;;;;;;5012882;28;20275;-66
2022/07/14 00:39:55;;;;;;;5.00;1.60;;;23.50;56.30;;;;;;5012586;28;20230;-66
2022/07/14 00:42:47;;;;;;;3.97;1.33;;;23.50;56.30;;;;;;5012949;28;20215;-66
2022/07/14 00:45:14;;;;;;;3.03;1.50;;;23.50;56.20;;;;;;5009846;28;20730;-65
2022/07/14 00:47:40;;;;;;;4.10;1.45;;;23.50;56.30;;;;;;5012133;28;20176;-65
2022/07/14 00:50:06;;;;;;;2.90;1.27;;;23.50;56.30;;;;;;5012665;28;20264;-64
2022/07/14 00:52:32;;;;;;;2.90;1.45;;;23.50;56.30;;;;;;5013029;28;20216;-65
2022/07/14 00:54:57;;;;;;;5.13;1.65;;;23.50;56.30;;;;;;5011940;28;20693;-65
2022/07/14 00:57:23;;;;;;;3.70;1.63;;;23.50;56.30;;;;;;5012467;28;20172;-65
2022/07/14 00:59:49;;;;;;;3.55;1.42;;;23.50;56.30;;;;;;5012501;28;20192;-66
2022/07/14 01:02:15;;;;;;;2.90;1.38;;;23.50;56.30;;;;;;5012232;28;20181;-65
2022/07/14 01:04:41;;;;;;;2.50;1.30;;;23.50;56.30;;;;;;5012133;28;20315;-65
2022/07/14 01:07:06;;;;;;;2.17;1.75;;;23.50;56.30;;;;;;5012591;28;20673;-66
2022/07/14 01:09:32;;;;;;;3.60;1.63;;;23.40;56.30;;;;;;5012117;28;20551;-66
2022/07/14 01:11:58;;;;;;;3.65;1.58;;;23.40;56.30;;;;;;5012805;28;20191;-66
2022/07/14 01:14:23;;;;;;;2.78;1.30;;;23.40;56.30;;;;;;5016076;28;20175;-65
2022/07/14 01:16:55;;;;;;;3.42;1.73;;;23.40;57.00;;;;;;5015372;28;20622;-66
2022/07/14 01:19:21;;;;;;;2.53;1.40;;;23.40;56.30;;;;;;5016080;28;20181;-66
2022/07/14 01:21:49;;;;;;;4.35;1.63;;;23.40;56.30;;;;;;5015879;28;20188;-66
2022/07/14 01:24:15;;;;;;;2.90;1.58;;;23.40;56.30;;;;;;5015484;28;20262;-65
2022/07/14 01:26:40;;;;;;;3.08;1.67;;;23.40;56.30;;;;;;5015411;28;20173;-65
2022/07/14 01:29:06;;;;;;;2.28;1.25;;;23.40;56.20;;;;;;5015421;28;20168;-66
2022/07/14 01:31:32;;;;;;;2.85;1.23;;;23.50;56.30;;;;;;5015636;28;20222;-65
2022/07/14 01:33:57;;;;;;;4.72;2.00;;;23.40;56.30;;;;;;5015517;28;20206;-66
2022/07/14 01:36:24;;;;;;;5.57;2.20;;;23.40;56.20;;;;;;5015410;28;20232;-66
2022/07/14 01:38:52;;;;;;;4.70;1.90;;;23.40;56.30;;;;;;5015500;28;20172;-66
2022/07/14 01:41:17;;;;;;;3.83;1.75;;;23.40;56.30;;;;;;5015470;28;20204;-66
2022/07/14 01:43:43;;;;;;;3.55;1.63;;;23.40;56.20;;;;;;5014892;28;20635;-66
2022/07/14 01:46:08;;;;;;;2.67;1.52;;;23.40;56.20;;;;;;5015385;28;20212;-65
2022/07/14 01:48:34;;;;;;;2.33;1.55;;;23.40;56.30;;;;;;5015651;28;20177;-64
2022/07/14 01:50:59;;;;;;;4.30;1.85;;;23.40;56.30;;;;;;5014839;28;20181;-64
2022/07/14 01:53:25;;;;;;;2.85;1.83;;;23.40;56.20;;;;;;5015361;28;20169;-65
2022/07/14 01:55:50;;;;;;;3.55;1.52;;;23.40;56.20;;;;;;5015226;28;20173;-65
2022/07/14 01:58:16;;;;;;;4.28;1.88;;;23.40;56.30;;;;;;5014732;28;20504;-65
2022/07/14 02:00:41;;;;;;;3.55;1.70;;;23.40;56.20;;;;;;5015103;28;20666;-66
2022/07/14 02:03:07;;;;;;;3.75;1.42;;;23.30;56.30;;;;;;5015197;28;20619;-65
2022/07/14 02:05:32;;;;;;;3.85;1.35;;;23.30;56.20;;;;;;5014391;28;20773;-66
2022/07/14 02:07:58;;;;;;;4.03;1.67;;;23.40;56.30;;;;;;5014719;28;20267;-65
2022/07/14 02:13:07;;;;;;;3.95;1.77;;;23.30;56.30;;;;;;5014563;28;20196;-65
2022/07/14 02:15:33;;;;;;;4.82;1.90;;;23.30;56.20;;;;;;5014804;28;20635;-66
2022/07/14 02:17:58;;;;;;;4.13;1.58;;;23.30;56.30;;;;;;5014717;28;20171;-66
2022/07/14 02:20:25;;;;;;;2.97;1.52;;;23.30;56.20;;;;;;5014310;28;20181;-65
2022/07/14 02:22:50;;;;;;;3.15;1.60;;;23.30;56.20;;;;;;5014244;28;20177;-65
2022/07/14 02:25:16;;;;;;;3.05;1.42;;;23.30;56.20;;;;;;5014516;28;20218;-66
2022/07/14 02:27:41;;;;;;;4.40;1.52;;;23.20;56.20;;;;;;5013834;28;20184;-65
2022/07/14 02:30:07;;;;;;;4.05;1.58;;;23.20;56.10;;;;;;5014596;28;20195;-65
2022/07/14 02:32:33;;;;;;;3.33;1.33;;;23.20;56.20;;;;;;5014419;28;20177;-65
2022/07/14 02:34:59;;;;;;;3.00;1.80;;;23.20;56.10;;;;;;5014268;28;20172;-66
2022/07/14 02:37:24;;;;;;;3.40;1.95;;;23.20;56.10;;;;;;5014593;28;20226;-65
2022/07/14 02:39:50;;;;;;;2.75;1.38;;;23.20;56.10;;;;;;5013759;28;20542;-66
2022/07/14 02:42:15;;;;;;;3.13;1.40;;;23.20;56.20;;;;;;5014466;28;20176;-65
2022/07/14 02:44:41;;;;;;;4.07;1.75;;;23.20;56.10;;;;;;5014351;28;20291;-64
2022/07/14 02:47:06;;;;;;;4.68;1.55;;;23.20;56.10;;;;;;5013905;28;20181;-64
2022/07/14 02:49:32;;;;;;;3.15;1.90;;;23.20;56.10;;;;;;5014373;28;20188;-65
2022/07/14 02:51:57;;;;;;;5.10;2.05;;;23.20;56.10;;;;;;5014090;28;20168;-64
2022/07/14 02:54:23;;;;;;;2.97;1.52;;;23.20;56.10;;;;;;5013812;28;20172;-65
2022/07/14 02:56:49;;;;;;;4.65;1.85;;;23.20;56.10;;;;;;5014069;28;20212;-65
2022/07/14 02:59:14;;;;;;;3.80;1.95;;;23.20;56.10;;;;;;5014288;28;20254;-65
2022/07/14 03:01:40;;;;;;;3.08;1.38;;;23.20;56.10;;;;;;5013613;28;20191;-65
2022/07/14 03:04:06;;;;;;;4.07;1.30;;;23.20;56.00;;;;;;5013558;28;20248;-65
2022/07/14 03:06:32;;;;;;;2.80;1.38;;;23.20;56.10;;;;;;5014151;28;20268;-66
2022/07/14 03:08:57;;;;;;;2.47;1.70;;;23.20;56.10;;;;;;5013231;28;20716;-66
2022/07/14 03:11:23;;;;;;;4.45;1.50;;;23.20;56.00;;;;;;4996178;28;20165;-65
2022/07/14 03:13:49;;;;;;;2.13;1.30;;;23.10;56.10;;;;;;5013692;28;20634;-66
2022/07/14 03:16:15;;;;;;;2.33;1.33;;;23.10;56.10;;;;;;5013359;28;20204;-66
2022/07/14 03:18:40;;;;;;;3.45;1.50;;;23.10;56.10;;;;;;5013555;28;20176;-66
2022/07/14 03:21:11;;;;;;;3.55;1.63;;;23.10;56.00;;;;;;5013811;28;20192;-66
2022/07/14 03:23:36;;;;;;;3.53;1.88;;;23.10;56.00;;;;;;5013071;28;20177;-66
2022/07/14 03:26:05;;;;;;;4.38;1.80;;;23.10;56.10;;;;;;5013524;28;20797;-65
2022/07/14 03:28:31;;;;;;;3.45;1.40;;;23.10;56.10;;;;;;5013862;28;20173;-65
2022/07/14 03:30:56;;;;;;;4.32;1.80;;;23.10;56.10;;;;;;5012605;28;20183;-65
2022/07/14 03:33:23;;;;;;;2.65;1.55;;;23.10;56.10;;;;;;5013726;28;20172;-66
2022/07/14 03:35:49;;;;;;;3.50;1.55;;;23.10;56.00;;;;;;5012257;28;20177;-65
2022/07/14 03:38:14;;;;;;;2.08;1.40;;;23.10;55.90;;;;;;5013239;28;20176;-65
2022/07/14 03:40:40;;;;;;;2.97;1.85;;;23.10;56.00;;;;;;5013486;28;20251;-66
2022/07/14 03:43:05;;;;;;;3.85;1.60;;;23.00;55.90;;;;;;5013067;28;20280;-65
2022/07/14 03:45:31;;;;;;;2.63;1.83;;;23.00;55.90;;;;;;5013314;28;20215;-65
2022/07/14 03:47:56;;;;;;;1.80;1.50;;;23.00;55.90;;;;;;5013220;28;20244;-64
2022/07/14 03:50:22;;;;;;;2.97;1.42;;;23.00;55.90;;;;;;5012958;28;20251;-64
2022/07/14 03:52:47;;;;;;;3.78;1.42;;;23.00;55.90;;;;;;5012886;28;20181;-64
2022/07/14 03:55:13;;;;;;;2.28;1.40;;;23.00;55.90;;;;;;5013355;28;20185;-65
2022/07/14 03:57:39;;;;;;;3.58;1.55;;;23.00;56.50;;;;;;5012656;28;20184;-65
2022/07/14 04:00:05;;;;;;;3.28;1.70;;;23.00;56.00;;;;;;5013100;28;20203;-65
2022/07/14 04:02:31;;;;;;;4.80;1.60;;;23.00;55.90;;;;;;5013296;28;20193;-65
2022/07/14 04:04:56;;;;;;;3.63;1.40;;;23.00;55.90;;;;;;5012074;28;20725;-65
2022/07/14 04:07:23;;;;;;;2.97;1.40;;;23.00;56.00;;;;;;5012832;28;20676;-66
2022/07/14 04:09:49;;;;;;;3.67;1.50;;;23.00;55.90;;;;;;5012860;28;20267;-66
2022/07/14 04:12:15;;;;;;;2.75;1.38;;;23.00;55.80;;;;;;5012756;28;20235;-65
2022/07/14 04:14:41;;;;;;;2.58;1.42;;;23.00;55.80;;;;;;5012717;28;20181;-66
2022/07/14 04:17:06;;;;;;;4.53;1.42;;;23.00;55.80;;;;;;5012986;28;20172;-66
2022/07/14 04:19:32;;;;;;;2.47;1.45;;;23.00;55.70;;;;;;5012517;28;20666;-66
2022/07/14 04:21:57;;;;;;;2.70;1.40;;;23.00;56.20;;;;;;5012487;28;20659;-66
2022/07/14 04:24:23;;;;;;;3.67;1.45;;;23.00;55.50;;;;;;5013181;28;20231;-66
2022/07/14 04:26:48;;;;;;;3.47;1.83;;;23.00;55.60;;;;;;5012108;28;20216;-66
2022/07/14 04:29:14;;;;;;;3.92;1.80;;;23.00;55.40;;;;;;5013065;28;20181;-66
2022/07/14 04:31:39;;;;;;;2.75;1.60;;;23.00;55.40;;;;;;5012849;28;20176;-66
2022/07/14 04:34:05;;;;;;;6.05;1.75;;;23.00;55.40;;;;;;5012207;28;20207;-66
2022/07/14 04:36:30;;;;;;;2.97;1.40;;;23.00;55.40;;;;;;5013066;28;20208;-66
2022/07/14 04:38:59;;;;;;;3.15;1.60;;;23.00;55.40;;;;;;5012791;28;20674;-66
2022/07/14 04:41:25;;;;;;;5.18;1.88;;;23.00;55.40;;;;;;5012595;28;20192;-66
2022/07/14 04:43:50;;;;;;;2.25;1.20;;;23.00;55.40;;;;;;5012688;28;20172;-66
2022/07/14 04:46:16;;;;;;;3.95;1.48;;;23.00;55.40;;;;;;5013620;28;20228;-65
2022/07/14 04:54:10;;;;;;;3.08;1.40;;;23.00;55.30;;;;;;5016041;28;20180;-66
2022/07/14 04:56:35;;;;;;;4.03;1.55;;;23.00;55.30;;;;;;5016304;28;20176;-65
2022/07/14 04:59:01;;;;;;;2.90;1.70;;;23.10;55.30;;;;;;5016136;28;20646;-66
2022/07/14 05:01:26;;;;;;;3.40;1.67;;;23.00;55.30;;;;;;5015823;28;20635;-66
2022/07/14 05:03:52;;;;;;;2.67;1.48;;;23.00;55.30;;;;;;5015941;28;20247;-66
2022/07/14 05:06:18;;;;;;;2.78;1.38;;;23.10;55.30;;;;;;5016408;28;20636;-66
2022/07/14 05:08:43;;;;;;;3.88;1.20;;;23.10;55.30;;;;;;5015915;28;20634;-66
2022/07/14 05:11:09;;;;;;;2.13;1.40;;;23.00;55.30;;;;;;5016024;28;20176;-66
2022/07/14 05:13:34;;;;;;;3.05;1.58;;;23.00;55.30;;;;;;5016257;28;20176;-66
2022/07/14 05:16:00;;;;;;;2.45;1.30;;;23.00;55.30;;;;;;5015110;28;20537;-67
2022/07/14 05:18:25;;;;;;;4.72;1.65;;;23.00;55.30;;;;;;5016315;28;20648;-67
2022/07/14 05:20:51;;;;;;;4.78;1.77;;;23.00;55.30;;;;;;5016030;28;20195;-66
2022/07/14 05:23:17;;;;;;;2.78;1.75;;;23.00;55.30;;;;;;5015357;28;20255;-66
2022/07/14 05:25:42;;;;;;;3.65;1.55;;;23.00;55.40;;;;;;5015863;28;20571;-66
2022/07/14 05:28:08;;;;;;;2.75;1.30;;;23.00;55.40;;;;;;5015836;28;20172;-66
2022/07/14 05:30:33;;;;;;;1.40;1.17;;;23.00;55.40;;;;;;5015143;28;20183;-66
2022/07/14 05:32:59;;;;;;;3.15;1.33;;;23.00;55.40;;;;;;5015739;28;20267;-66
2022/07/14 05:35:24;;;;;;;4.18;1.60;;;23.00;55.40;;;;;;5015487;28;20263;-66
2022/07/14 05:37:50;;;;;;;2.75;1.25;;;23.10;55.50;;;;;;5015394;28;20263;-66
2022/07/14 05:40:16;;;;;;;3.15;1.38;;;23.00;55.40;;;;;;5015690;28;20190;-67
2022/07/14 05:42:42;;;;;;;5.65;2.38;;;23.10;55.40;;;;;;5014957;28;20173;-66
2022/07/14 05:45:08;;;;;;;2.50;1.52;;;23.00;55.40;;;;;;5015286;28;20599;-66
2022/07/14 05:47:33;;;;;;;4.68;1.77;;;23.00;55.40;;;;;;5015663;28;20183;-65
2022/07/14 05:49:59;;;;;;;3.78;1.75;;;23.10;55.50;;;;;;5014748;28;20172;-65
2022/07/14 05:52:24;;;;;;;4.32;1.67;;;23.00;55.40;;;;;;5015463;28;20183;-65
2022/07/14 05:54:50;;;;;;;2.22;1.35;;;23.10;55.50;;;;;;5015157;28;20203;-66
2022/07/14 05:57:15;;;;;;;3.20;1.20;;;23.10;55.60;;;;;;5014276;28;20639;-65
2022/07/14 05:59:41;;;;;;;2.58;1.60;;;23.00;55.50;;;;;;5014665;28;20227;-66
2022/07/14 06:02:07;;;;;;;4.65;1.55;;;23.00;55.50;;;;;;5015423;28;20169;-65
2022/07/14 06:04:32;;;;;;;4.35;1.85;;;23.00;55.50;;;;;;5014589;28;20287;-66
2022/07/14 06:06:58;;;;;;;3.75;1.65;;;23.00;55.50;;;;;;5014847;28;20180;-66
2022/07/14 06:09:23;;;;;;;3.10;1.95;;;23.10;55.60;;;;;;5015300;28;20173;-66
2022/07/14 06:11:49;;;;;;;2.90;1.70;;;23.00;55.60;;;;;;5014452;28;20172;-66
2022/07/14 06:14:14;;;;;;;3.90;1.48;;;23.10;55.60;;;;;;5014701;28;20534;-66
2022/07/14 06:16:40;;;;;;;5.88;2.15;;;23.00;55.60;;;;;;5014772;28;20217;-67
2022/07/14 06:19:06;;;;;;;1.92;1.35;;;23.00;55.60;;;;;;5014401;28;20177;-67
2022/07/14 06:21:31;;;;;;;3.88;1.40;;;23.10;55.70;;;;;;5015123;28;20181;-67
2022/07/14 06:23:57;;;;;;;2.80;1.33;;;23.00;55.60;;;;;;5014533;28;20539;-66
2022/07/14 06:26:22;;;;;;;2.38;1.27;;;23.00;55.70;;;;;;5013891;28;20682;-66
2022/07/14 06:28:48;;;;;;;4.32;1.70;;;23.00;55.70;;;;;;5014055;28;20184;-66
2022/07/14 06:31:14;;;;;;;2.92;1.38;;;23.10;55.80;;;;;;5014544;28;20611;-66
2022/07/14 06:33:39;;;;;;;3.67;1.38;;;23.00;55.70;;;;;;5013998;28;20222;-66
2022/07/14 06:36:06;;;;;;;3.33;1.50;;;23.10;55.80;;;;;;5014802;28;20238;-66
2022/07/14 06:38:32;;;;;;;3.15;1.35;;;23.10;55.80;;;;;;5014739;28;20180;-66
2022/07/14 06:40:58;;;;;;;5.28;1.50;;;23.00;55.90;;;;;;5013729;28;20183;-66
2022/07/14 06:43:23;;;;;;;2.45;1.30;;;23.10;55.90;;;;;;5014472;28;20260;-66
2022/07/14 06:45:49;;;;;;;1.67;1.15;;;23.10;55.90;;;;;;5013910;28;20311;-66
2022/07/14 06:48:14;;;;;;;2.03;1.17;;;23.00;55.90;;;;;;5014082;28;20553;-65
2022/07/14 06:50:40;;;;;;;3.45;1.42;;;23.00;55.90;;;;;;5014418;28;20184;-65
2022/07/14 06:53:06;;;;;;;4.03;1.50;;;23.00;55.90;;;;;;5013771;28;20172;-65
2022/07/14 06:55:31;;;;;;;2.90;1.40;;;23.10;55.90;;;;;;5014094;28;20168;-66
2022/07/14 06:57:56;;;;;;;3.22;1.63;;;23.10;56.00;;;;;;5013915;28;20680;-66
2022/07/14 07:00:22;;;;;;;2.97;1.40;;;23.00;55.90;;;;;;5013937;28;20634;-65
2022/07/14 07:02:48;;;;;;;2.35;1.30;;;23.10;56.00;;;;;;5013914;28;20231;-66
2022/07/14 07:07:58;;;;;;;4.60;1.38;;;23.10;56.00;;;;;;5013328;28;20187;-67
2022/07/14 07:10:24;;;;;;;3.70;1.45;;;23.10;56.00;;;;;;5012843;28;20187;-67
2022/07/14 07:12:49;;;;;;;2.50;1.08;;;23.10;55.90;;;;;;5013813;28;20180;-67
2022/07/14 07:15:15;;;;;;;5.20;1.50;;;23.10;55.90;;;;;;5013321;28;20172;-67
2022/07/14 07:17:40;;;;;;;4.65;1.50;;;23.10;56.00;;;;;;5013848;28;20172;-67
2022/07/14 07:20:06;;;;;;;2.33;1.45;;;23.10;56.00;;;;;;5013732;28;20230;-65
2022/07/14 07:22:32;;;;;;;1.90;1.40;;;23.20;56.10;;;;;;5013100;28;20247;-65
2022/07/14 07:24:57;;;;;;;5.22;1.80;;;23.10;56.10;;;;;;5012484;28;20204;-66
2022/07/14 07:27:23;;;;;;;3.95;1.65;;;23.10;56.10;;;;;;5012576;28;20177;-67
2022/07/14 07:29:48;;;;;;;3.17;2.28;;;23.20;56.10;;;;;;5012448;28;20562;-65
2022/07/14 07:32:14;;;;;;;3.53;1.55;;;23.10;56.10;;;;;;5013111;28;20177;-64
2022/07/14 07:34:39;;;;;;;5.22;1.90;;;23.10;56.20;;;;;;5013112;28;20184;-71
2022/07/14 07:37:05;;;;;;;6.72;2.08;;;23.10;56.20;;;;;;5012468;28;20176;-66
2022/07/14 07:39:31;;;;;;;5.63;1.75;;;23.10;56.20;;;;;;5012958;28;20661;-66
2022/07/14 07:41:59;;;;;;;6.35;2.00;;;23.10;56.20;;;;;;5012414;28;20184;-66
2022/07/14 07:44:25;;;;;;;2.67;1.30;;;23.10;56.20;;;;;;5012894;28;20280;-65
2022/07/14 07:46:51;;;;;;;3.63;1.17;;;23.20;56.30;;;;;;5013477;28;20546;-65
2022/07/14 07:49:17;;;;;;;4.20;1.50;;;23.10;56.20;;;;;;5012551;28;20195;-65
2022/07/14 07:51:43;;;;;;;3.75;1.35;;;23.10;56.20;;;;;;5012976;28;20208;-65
2022/07/14 07:54:08;;;;;;;2.72;1.30;;;23.10;56.20;;;;;;5013264;28;20196;-66
2022/07/14 07:56:34;;;;;;;1.90;1.20;;;23.10;56.20;;;;;;5012600;28;20259;-66
2022/07/14 07:59:00;;;;;;;4.35;1.38;;;23.10;56.20;;;;;;5012662;28;20638;-66
2022/07/14 08:01:25;;;;;;;4.45;1.67;;;23.10;56.20;;;;;;5013396;28;20180;-66
2022/07/14 08:03:50;;;;;;;6.00;1.67;;;23.10;56.20;;;;;;5012620;28;20223;-66
2022/07/14 08:06:16;;;;;;;2.90;1.13;;;23.10;56.20;;;;;;5012835;28;20227;-66
2022/07/14 08:08:42;;;;;;;6.18;1.52;;;23.10;56.20;;;;;;5012885;28;20185;-66
2022/07/14 08:11:07;;;;;;;3.28;1.35;;;23.10;56.20;;;;;;5012288;28;20180;-66
2022/07/14 08:13:33;;;;;;;3.30;1.63;;;23.20;56.20;;;;;;5012882;28;20177;-66
2022/07/14 08:15:59;;;;;;;3.10;1.45;;;23.20;56.20;;;;;;5012729;28;20631;-66
2022/07/14 08:18:24;;;;;;;2.15;1.52;;;23.10;56.20;;;;;;5012487;28;20635;-66
2022/07/14 08:20:52;;;;;;;4.80;1.48;;;23.20;56.20;;;;;;5013746;28;20682;-66
2022/07/14 08:23:17;;;;;;;3.25;1.20;;;23.10;56.10;;;;;;5016990;28;20650;-66
2022/07/14 08:25:43;;;;;;;4.53;1.77;;;23.20;56.10;;;;;;5015973;28;20220;-66
2022/07/14 08:28:09;;;;;;;1.88;1.40;;;23.20;56.10;;;;;;5016930;28;20706;-66
2022/07/14 08:30:35;;;;;;;3.97;1.33;;;23.20;56.10;;;;;;5017260;28;20260;-66
2022/07/14 08:33:00;;;;;;;3.75;1.60;;;23.20;56.10;;;;;;5016087;28;20172;-66
2022/07/14 08:35:26;;;;;;;2.38;1.30;;;23.20;56.10;;;;;;5017234;28;20199;-66
2022/07/14 08:37:52;;;;;;;3.17;1.33;;;23.20;56.00;;;;;;5015834;28;20183;-67
2022/07/14 08:40:19;;;;;;;5.95;1.35;;;23.20;56.00;;;;;;5014961;28;20260;-66
2022/07/14 08:42:47;;;;;;;2.13;1.00;;;23.20;56.00;;;;;;5015892;28;20260;-66
2022/07/14 08:45:15;;;;;;;4.22;1.67;;;23.20;55.90;;;;;;5015550;28;20212;-65
2022/07/14 08:47:40;;;;;;;3.45;1.40;;;23.30;55.90;;;;;;5015972;28;20173;-65
2022/07/14 08:50:08;;;;;;;2.20;1.38;;;23.30;56.00;;;;;;5016465;28;20279;-65
2022/07/14 08:52:33;;;;;;;2.17;0.95;;;23.30;55.90;;;;;;5015936;28;20180;-65
2022/07/14 08:54:59;;;;;;;2.88;1.20;;;23.30;55.90;;;;;;5016075;28;20175;-66
2022/07/14 08:57:25;;;;;;;2.97;1.48;;;23.30;55.90;;;;;;5016699;28;20185;-66
2022/07/14 08:59:50;;;;;;;2.42;1.02;;;23.20;55.80;;;;;;5015729;28;20192;-66
2022/07/14 09:02:16;;;;;;;2.78;1.20;;;23.30;55.80;;;;;;5016162;28;20706;-66
2022/07/14 09:04:45;;;;;;;3.17;1.40;;;23.30;55.80;;;;;;5015929;28;20701;-66
2022/07/14 09:07:12;;;;;;;2.25;1.23;;;23.30;55.80;;;;;;5015764;28;20177;-66
2022/07/14 09:09:38;;;;;;;1.90;1.02;;;23.30;55.70;;;;;;5016350;28;20267;-66
2022/07/14 09:12:05;;;;;;;2.55;1.20;;;23.30;55.70;;;;;;5016367;28;20260;-66
2022/07/14 09:17:18;;;;;;;2.63;1.25;;;23.30;55.60;;;;;;5015889;28;20183;-66
2022/07/14 09:20:07;;;;;;;2.72;1.23;;;23.30;55.70;;;;;;5015785;28;20180;-66
2022/07/14 09:22:33;;;;;;;2.42;1.10;;;23.30;55.60;;;;;;5015406;28;20234;-66
2022/07/14 09:24:58;;;;;;;1.33;0.98;;;23.40;55.60;;;;;;5015819;28;20220;-66
2022/07/14 09:27:24;;;;;;;2.22;1.33;;;23.40;55.70;;;;;;5015497;28;20169;-66
2022/07/14 09:29:56;;;;;;;2.53;1.20;;;23.40;55.60;;;;;;4998008;28;20230;-66
2022/07/14 09:32:53;;;;;;;1.85;1.13;;;23.40;55.60;;;;;;5014961;28;20323;-66
2022/07/14 09:35:36;;;;;;;2.95;0.98;;;23.40;55.50;;;;;;5015299;28;20177;-66
2022/07/14 09:38:23;;;;;;;2.42;1.27;;;23.40;55.50;;;;;;5015601;28;20260;-67
2022/07/14 09:40:48;;;;;;;2.25;1.30;;;23.40;55.60;;;;;;5015796;28;20521;-66
2022/07/14 09:43:14;;;;;;;2.20;1.10;;;23.40;55.60;;;;;;5014813;28;20234;-66
2022/07/14 09:45:42;;;;;;;2.72;1.00;;;23.40;55.60;;;;;;5015546;28;20216;-66
2022/07/14 09:48:11;;;;;;;2.47;1.10;;;23.50;55.60;;;;;;5015627;28;20252;-65
2022/07/14 09:50:57;;;;;;;2.90;0.95;;;23.50;55.70;;;;;;5014827;28;20623;-65
2022/07/14 09:53:33;;;;;;;2.47;1.25;;;23.50;55.50;;;;;;5015743;28;20180;-66
2022/07/14 09:56:06;;;;;;;1.98;1.33;;;23.50;55.40;;;;;;5014853;28;20187;-66
2022/07/14 09:58:33;;;;;;;1.45;0.85;;;23.50;55.30;;;;;;5015352;28;20189;-66
2022/07/14 10:01:06;;;;;;;2.67;1.20;;;23.60;55.40;;;;;;5015111;28;20182;-66
2022/07/14 10:03:33;;;;;;;1.25;1.00;;;23.50;55.50;;;;;;5014420;28;20231;-66
2022/07/14 10:06:00;;;;;;;3.75;1.13;;;23.60;55.50;;;;;;5015075;28;20306;-66
2022/07/14 10:08:27;;;;;;;1.35;0.98;;;23.50;55.70;;;;;;5015374;28;20177;-66
2022/07/14 10:10:53;;;;;;;1.10;0.90;;;23.50;55.80;;;;;;5014018;28;20666;-66
2022/07/14 10:13:19;;;;;;;3.08;1.23;;;23.50;55.90;;;;;;5015013;28;20172;-66
2022/07/14 10:15:46;;;;;;;2.33;1.48;;;23.50;55.90;;;;;;5014789;28;20689;-67
2022/07/14 10:18:11;;;;;;;2.35;0.70;;;23.60;55.80;;;;;;5012997;28;20180;-66
2022/07/14 10:20:37;;;;;;;2.15;1.00;;;23.60;55.70;;;;;;5013968;28;20263;-66
2022/07/14 10:23:02;;;;;;;1.05;0.90;;;23.70;55.60;;;;;;5013817;28;20380;-66
2022/07/14 10:25:28;;;;;;;1.13;0.93;;;23.60;55.60;;;;;;5014090;28;20266;-66
2022/07/14 10:27:53;;;;;;;1.80;1.00;;;23.60;55.70;;;;;;5014486;28;20702;-66
2022/07/14 10:30:19;;;;;;;1.77;1.00;;;23.50;55.70;;;;;;5013513;28;20178;-66
2022/07/14 10:33:20;;;;;;;1.67;1.10;;;23.60;55.80;;;;;;4996151;28;20631;-66
2022/07/14 10:35:55;;;;;;;1.75;1.02;;;23.60;55.70;;;;;;5012828;28;20204;-66
2022/07/14 10:38:41;;;;;;;3.03;1.17;;;23.60;55.70;;;;;;5013879;28;20180;-67
2022/07/14 10:41:11;;;;;;;2.00;0.70;;;23.60;55.70;;;;;;5013298;28;20284;-65
2022/07/14 10:43:57;;;;;;;3.33;1.08;;;23.60;56.40;;;;;;5013269;28;20315;-65
2022/07/14 10:46:37;;;;;;;3.90;1.23;;;23.60;55.80;;;;;;5013753;28;20559;-65
2022/07/14 10:49:04;;;;;;;2.70;1.00;;;23.60;55.80;;;;;;5014323;28;20177;-65
2022/07/14 10:51:32;;;;;;;1.38;1.10;;;23.70;55.80;;;;;;5014161;28;20181;-65
2022/07/14 10:54:11;;;;;;;3.45;1.20;;;23.70;55.80;;;;;;5013554;28;20198;-65
2022/07/14 10:56:37;;;;;;;1.65;0.98;;;23.70;55.70;;;;;;5014193;28;20203;-66
2022/07/14 10:59:24;;;;;;;3.13;1.10;;;23.70;55.80;;;;;;5013703;28;20188;-65
2022/07/14 11:02:15;;;;;;;4.22;1.08;;;23.70;55.80;;;;;;5013730;28;20173;-64
2022/07/14 11:05:01;;;;;;;5.88;1.30;;;23.70;55.80;;;;;;5013695;28;20232;-64
2022/07/14 11:07:40;;;;;;;4.97;1.27;;;23.70;55.90;;;;;;5013482;28;20177;-65
2022/07/14 11:10:21;;;;;;;2.47;1.05;;;23.70;55.80;;;;;;5014121;28;20223;-64
2022/07/14 11:13:04;;;;;;;1.85;0.93;;;23.80;55.80;;;;;;5013868;28;20262;-65
2022/07/14 11:15:50;;;;;;;2.90;0.88;;;23.80;55.70;;;;;;5013862;28;20184;-66
2022/07/14 11:18:18;;;;;;;4.93;1.00;;;23.80;55.70;;;;;;5013772;28;20725;-66
2022/07/14 11:20:49;;;;;;;4.65;1.60;;;23.90;55.70;;;;;;5012932;28;20172;-66
2022/07/14 11:23:15;;;;;;;1.67;1.20;;;23.90;55.50;;;;;;5013885;28;20538;-66
2022/07/14 11:25:41;;;;;;;3.35;1.33;;;23.90;55.60;;;;;;5013578;28;20223;-66
2022/07/14 11:28:13;;;;;;;4.07;1.42;;;23.80;55.50;;;;;;5011875;28;20173;-66
2022/07/14 11:30:38;;;;;;;5.13;1.20;;;23.90;56.10;;;;;;4995841;28;20227;-65
2022/07/14 11:33:09;;;;;;;1.90;1.17;;;24.00;55.30;;;;;;4996110;28;20203;-65
2022/07/14 11:38:23;;;;;;;3.10;1.23;;;24.00;55.20;;;;;;5013801;28;20195;-66
2022/07/14 11:40:55;;;;;;;2.70;0.98;;;24.00;55.20;;;;;;5013255;28;20635;-66
2022/07/14 11:43:29;;;;;;;3.28;0.95;;;24.00;55.20;;;;;;5012737;28;20173;-65
2022/07/14 11:45:56;;;;;;;3.13;1.35;;;23.90;55.20;;;;;;5013169;28;20219;-66
2022/07/14 11:48:22;;;;;;;5.45;1.10;;;24.00;55.30;;;;;;5012775;28;20176;-64
2022/07/14 11:50:48;;;;;;;3.80;1.33;;;24.00;55.30;;;;;;4995366;28;20188;-66
2022/07/14 11:53:15;;;;;;;4.00;1.23;;;24.00;55.20;;;;;;5012208;28;20180;-66
2022/07/14 11:55:40;;;;;;;2.30;1.13;;;24.00;55.20;;;;;;5010765;28;20658;-67
2022/07/14 11:58:06;;;;;;;2.45;1.58;;;24.10;55.20;;;;;;5011708;28;20176;-66
2022/07/14 12:00:31;;;;;;;3.67;1.00;;;24.10;55.20;;;;;;5012331;28;20176;-66
2022/07/14 12:02:59;;;;;;;3.03;0.98;;;24.10;55.10;;;;;;5011148;28;20234;-64
2022/07/14 12:05:25;;;;;;;3.63;0.98;;;24.10;55.10;;;;;;5012792;28;20235;-68
2022/07/14 12:07:53;;;;;;;3.05;0.98;;;24.10;55.10;;;;;;5013044;28;20176;-67
2022/07/14 12:10:44;;;;;;;3.58;1.10;;;24.10;55.20;;;;;;5012160;28;20237;-67
2022/07/14 12:13:10;;;;;;;1.55;1.05;;;24.10;55.20;;;;;;4993466;28;20212;-68
2022/07/14 12:15:36;;;;;;;3.60;1.25;;;24.10;55.20;;;;;;5013319;28;20326;-69
2022/07/14 12:18:02;;;;;;;1.88;1.10;;;24.10;55.20;;;;;;5012039;28;20196;-69
2022/07/14 12:20:55;;;;;;;2.63;1.10;;;24.10;55.20;;;;;;5013046;28;20246;-68
2022/07/14 12:23:21;;;;;;;4.10;1.10;;;24.10;55.30;;;;;;5012217;28;20185;-69
2022/07/14 12:25:46;;;;;;;3.97;1.52;;;24.10;55.20;;;;;;5012628;28;20208;-68
2022/07/14 12:28:17;;;;;;;2.47;0.90;;;24.10;55.20;;;;;;5013051;28;20172;-67
2022/07/14 12:30:47;;;;;;;2.20;1.10;;;24.10;55.20;;;;;;5012285;28;20187;-67
2022/07/14 12:33:13;;;;;;;2.72;1.10;;;24.10;55.10;;;;;;5012700;28;20183;-68
2022/07/14 12:35:40;;;;;;;2.97;1.00;;;24.10;55.00;;;;;;5012289;28;20180;-68
2022/07/14 12:38:05;;;;;;;4.78;1.15;;;24.20;55.00;;;;;;5012092;28;20603;-67
2022/07/14 12:40:32;;;;;;;2.75;0.82;;;24.20;54.90;;;;;;5011918;28;20208;-67
2022/07/14 12:42:57;;;;;;;2.35;0.90;;;24.10;54.90;;;;;;5011285;28;20615;-68
2022/07/14 12:45:24;;;;;;;3.50;1.17;;;24.10;55.00;;;;;;5010962;28;20216;-67
2022/07/14 12:47:50;;;;;;;1.70;0.95;;;24.10;55.10;;;;;;5012491;28;20211;-67
2022/07/14 12:50:25;;;;;;;1.80;1.10;;;24.00;55.10;;;;;;5012540;28;20215;-66
2022/07/14 12:52:53;;;;;;;2.60;0.82;;;24.00;55.10;;;;;;5011715;28;20266;-67
2022/07/14 12:55:37;;;;;;;2.97;0.82;;;24.00;55.10;;;;;;5012793;28;20177;-67
2022/07/14 12:58:06;;;;;;;0.98;0.65;;;24.10;55.00;;;;;;5012626;28;20211;-67
2022/07/14 13:00:32;;;;;;;2.65;1.20;;;24.00;55.10;;;;;;5011775;28;20208;-67
2022/07/14 13:03:16;;;;;;;1.17;0.93;;;24.00;55.10;;;;;;5012139;28;20216;-67
2022/07/14 13:05:57;;;;;;;1.98;1.00;;;24.00;55.00;;;;;;5012009;28;20220;-67